createdAt,value
2018-08-23T00:01:32.890Z,5.20
2018-08-23T00:06:27.565Z,5.70
2018-08-23T00:11:28.623Z,8.45
2018-08-23T00:16:33.557Z,5.67
2018-08-23T00:21:28.746Z,4.40
2018-08-23T00:26:23.434Z,6.72
2018-08-23T00:31:18.140Z,5.97
2018-08-23T00:36:12.827Z,4.95
2018-08-23T00:41:07.576Z,6.08
2018-08-23T00:46:06.287Z,4.70
2018-08-23T00:51:01.719Z,4.45
2018-08-23T00:56:21.783Z,4.20
2018-08-23T01:01:16.554Z,4.72
2018-08-23T01:06:11.277Z,3.70
2018-08-23T01:11:07.043Z,3.20
2018-08-23T01:16:01.811Z,4.08
2018-08-23T01:20:56.603Z,3.67
2018-08-23T01:25:51.712Z,4.58
2018-08-23T01:30:47.145Z,4.75
2018-08-23T01:35:43.541Z,4.25
2018-08-23T01:40:38.037Z,3.85
2018-08-23T01:45:32.536Z,4.20
2018-08-23T01:50:27.613Z,4.40
2018-08-23T01:55:23.224Z,4.80
2018-08-23T02:00:34.463Z,5.08
2018-08-23T02:05:29.040Z,4.65
2018-08-23T02:10:23.555Z,5.08
2018-08-23T02:15:18.129Z,4.80
2018-08-23T02:20:12.705Z,4.28
2018-08-23T02:25:07.868Z,5.12
2018-08-23T02:30:02.417Z,4.80
2018-08-23T02:35:07.008Z,5.83
2018-08-23T02:40:01.826Z,5.87
2018-08-23T02:44:58.510Z,5.92
2018-08-23T02:49:53.256Z,7.00
2018-08-23T02:54:47.979Z,4.92
2018-08-23T02:59:42.492Z,5.92
2018-08-23T03:04:36.956Z,5.28
2018-08-23T03:09:35.721Z,5.60
2018-08-23T03:14:30.840Z,5.50
2018-08-23T03:19:25.338Z,5.25
2018-08-23T03:24:21.675Z,6.95
2018-08-23T03:29:16.182Z,6.05
2018-08-23T03:34:10.745Z,7.10
2018-08-23T03:39:08.145Z,4.72
2018-08-23T03:44:02.633Z,4.72
2018-08-23T03:49:04.101Z,4.28
2018-08-23T03:54:00.553Z,4.67
2018-08-23T03:58:55.055Z,4.20
2018-08-23T04:03:49.797Z,4.37
2018-08-23T04:08:45.957Z,4.83
2018-08-23T04:13:40.460Z,4.10
2018-08-23T04:18:34.940Z,4.50
2018-08-23T04:23:29.469Z,4.87
2018-08-23T04:28:23.973Z,5.12
2018-08-23T04:33:18.548Z,6.17
2018-08-23T04:38:13.049Z,5.35
2018-08-23T04:43:07.686Z,4.90
2018-08-23T04:48:05.183Z,5.42
2018-08-23T04:52:59.689Z,5.42
2018-08-23T04:57:54.368Z,5.50
2018-08-23T05:02:48.893Z,6.47
2018-08-23T05:07:43.422Z,5.55
2018-08-23T05:12:37.908Z,6.62
2018-08-23T05:17:32.612Z,5.42
2018-08-23T05:22:27.119Z,6.37
2018-08-23T05:27:22.364Z,6.87
2018-08-23T05:32:18.938Z,4.47
2018-08-23T05:37:13.329Z,4.97
2018-08-23T05:42:07.713Z,5.28
2018-08-23T05:47:02.132Z,4.60
2018-08-23T05:51:59.620Z,6.60
2018-08-23T05:56:54.060Z,4.92
2018-08-23T06:01:48.904Z,5.60
2018-08-23T06:06:43.379Z,4.78
2018-08-23T06:11:37.932Z,6.42
2018-08-23T06:16:44.289Z,5.05
2018-08-23T06:21:38.676Z,5.70
2018-08-23T06:26:44.484Z,7.45
2018-08-23T06:31:59.890Z,7.40
2018-08-23T06:36:54.936Z,7.78
2018-08-23T06:42:01.054Z,7.53
2018-08-23T06:46:55.460Z,8.13
2018-08-23T06:52:07.036Z,8.93
2018-08-23T06:57:01.550Z,6.65
2018-08-23T07:01:56.125Z,5.15
2018-08-23T07:06:53.931Z,5.53
2018-08-23T07:11:48.452Z,7.65
2018-08-23T07:16:44.732Z,5.75
2018-08-23T07:21:39.225Z,6.55
2018-08-23T07:26:33.723Z,7.20
2018-08-23T07:31:28.126Z,4.90
2018-08-23T07:36:31.125Z,4.80
2018-08-23T07:41:25.708Z,4.80
2018-08-23T07:46:22.699Z,5.37
2018-08-23T07:51:24.970Z,7.80
2018-08-23T07:56:23.538Z,5.30
2018-08-23T08:01:17.948Z,5.50
2018-08-23T08:06:28.099Z,5.85
2018-08-23T08:11:22.604Z,5.35
2018-08-23T08:16:19.344Z,5.45
2018-08-23T08:21:18.771Z,7.00
2018-08-23T08:26:13.193Z,7.10
2018-08-23T08:31:07.959Z,5.42
2018-08-23T08:36:04.703Z,4.97
2018-08-23T08:41:00.644Z,7.60
2018-08-23T08:46:01.045Z,5.58
2018-08-23T08:51:22.197Z,7.67
2018-08-23T08:56:18.736Z,5.40
2018-08-23T09:01:13.131Z,7.35
2018-08-23T09:06:11.923Z,6.30
2018-08-23T09:11:07.904Z,6.53
2018-08-23T09:16:09.183Z,5.58
2018-08-23T09:21:04.342Z,6.42
2018-08-23T09:26:00.796Z,6.03
2018-08-23T09:30:58.048Z,7.45
2018-08-23T09:36:01.068Z,5.17
2018-08-23T09:40:56.807Z,5.60
2018-08-23T09:45:52.117Z,4.70
2018-08-23T09:50:49.125Z,5.22
2018-08-23T09:55:47.204Z,5.40
2018-08-23T10:00:46.964Z,5.80
2018-08-23T10:05:48.761Z,5.95
2018-08-23T10:10:48.346Z,7.60
2018-08-23T10:15:45.920Z,5.72
2018-08-23T10:21:01.337Z,5.83
2018-08-23T10:25:58.634Z,6.22
2018-08-23T10:30:53.489Z,5.72
2018-08-23T10:35:49.224Z,5.87
2018-08-23T10:46:48.724Z,7.20
2018-08-23T10:51:43.246Z,6.83
2018-08-23T10:56:39.860Z,5.62
2018-08-23T11:01:34.293Z,6.10
2018-08-23T11:06:28.750Z,5.92
2018-08-23T11:11:37.424Z,6.30
2018-08-23T11:16:41.041Z,7.42
2018-08-23T11:21:37.998Z,7.30
2018-08-23T11:26:33.217Z,6.65
2018-08-23T11:31:28.612Z,6.15
2018-08-23T11:36:23.201Z,7.12
2018-08-23T11:41:17.855Z,6.05
2018-08-23T11:46:14.865Z,7.92
2018-08-23T11:51:09.317Z,6.45
2018-08-23T11:56:04.589Z,6.50
2018-08-23T12:01:04.242Z,6.03
2018-08-23T12:05:58.700Z,6.97
2018-08-23T12:10:54.328Z,6.75
2018-08-23T12:15:48.966Z,6.25
2018-08-23T12:20:43.385Z,7.20
2018-08-23T12:25:37.803Z,5.40
2018-08-23T12:30:32.453Z,6.50
2018-08-23T12:35:27.830Z,6.08
2018-08-23T12:40:27.869Z,6.85
2018-08-23T12:45:22.332Z,6.95
2018-08-23T12:50:16.931Z,6.17
2018-08-23T12:55:11.688Z,6.70
2018-08-23T13:00:06.537Z,7.00
2018-08-23T13:05:01.081Z,7.12
2018-08-23T13:09:56.326Z,7.08
2018-08-23T13:14:50.781Z,6.60
2018-08-23T13:19:45.545Z,10.00
2018-08-23T13:24:45.172Z,9.70
2018-08-23T13:29:39.753Z,6.95
2018-08-23T13:34:34.188Z,8.18
2018-08-23T13:39:28.679Z,7.83
2018-08-23T13:44:23.890Z,8.48
2018-08-23T13:49:18.399Z,6.62
2018-08-23T13:54:13.781Z,7.05
2018-08-23T13:59:08.414Z,11.75
2018-08-23T14:04:02.836Z,11.33
2018-08-23T14:08:57.442Z,15.72
2018-08-23T14:13:52.019Z,19.92
2018-08-23T14:18:54.791Z,15.35
2018-08-23T14:23:49.494Z,12.15
2018-08-23T14:28:44.041Z,12.45
2018-08-23T14:33:38.577Z,12.03
2018-08-23T14:38:33.346Z,9.75
2018-08-23T14:43:28.290Z,10.75
2018-08-23T14:48:22.941Z,10.93
2018-08-23T14:53:23.664Z,9.63
2018-08-23T14:58:18.246Z,9.00
2018-08-23T15:03:13.088Z,12.90
2018-08-23T15:08:12.850Z,6.15
2018-08-23T15:13:07.678Z,12.82
2018-08-23T15:18:03.178Z,8.98
2018-08-23T15:22:58.254Z,11.13
2018-08-23T15:27:55.123Z,8.58
2018-08-23T15:32:50.006Z,8.95
2018-08-23T15:37:45.230Z,7.10
2018-08-23T15:42:39.929Z,10.60
2018-08-23T15:47:34.519Z,8.40
2018-08-23T15:52:29.252Z,8.83
2018-08-23T15:57:23.897Z,10.13
2018-08-23T16:02:18.425Z,10.13
2018-08-23T16:07:13.325Z,8.93
2018-08-23T16:12:07.862Z,17.83
2018-08-23T16:17:07.827Z,10.00
2018-08-23T16:22:13.871Z,9.90
2018-08-23T16:27:19.752Z,10.13
2018-08-23T16:32:28.525Z,11.20
2018-08-23T16:37:23.433Z,10.93
2018-08-23T16:42:28.115Z,8.97
2018-08-23T16:47:36.338Z,9.63
2018-08-23T16:52:31.689Z,11.23
2018-08-23T16:57:26.398Z,11.73
2018-08-23T17:02:20.947Z,9.30
2018-08-23T17:07:16.733Z,9.73
2018-08-23T17:12:11.520Z,9.77
2018-08-23T17:17:11.298Z,7.80
2018-08-23T17:22:05.905Z,7.78
2018-08-23T17:27:00.424Z,9.18
2018-08-23T17:31:55.541Z,9.63
2018-08-23T17:36:50.454Z,7.80
2018-08-23T17:41:45.535Z,9.30
2018-08-23T17:46:40.153Z,7.85
2018-08-23T17:51:34.725Z,9.50
2018-08-23T17:56:29.309Z,7.40
2018-08-23T18:01:23.849Z,12.90
2018-08-23T18:06:18.444Z,8.73
2018-08-23T18:11:13.081Z,11.70
2018-08-23T18:16:13.139Z,9.17
2018-08-23T18:21:07.711Z,8.80
2018-08-23T18:26:02.485Z,10.87
2018-08-23T18:30:57.140Z,10.40
2018-08-23T18:35:51.806Z,12.47
2018-08-23T18:40:46.336Z,9.40
2018-08-23T18:45:40.983Z,7.60
2018-08-23T18:50:35.817Z,9.53
2018-08-23T18:55:30.771Z,8.30
2018-08-23T19:00:25.710Z,9.23
2018-08-23T19:05:20.314Z,13.53
2018-08-23T19:10:15.661Z,9.10
2018-08-23T19:15:10.313Z,8.60
2018-08-23T19:20:05.619Z,8.63
2018-08-23T19:25:00.550Z,7.93
2018-08-23T19:29:55.193Z,9.20
2018-08-23T19:34:49.944Z,10.30
2018-08-23T19:39:45.028Z,8.97
2018-08-23T19:44:44.869Z,10.47
2018-08-23T19:49:44.902Z,9.10
2018-08-23T19:54:40.128Z,8.50
2018-08-23T19:59:34.910Z,10.70
2018-08-23T20:04:30.118Z,8.67
2018-08-23T20:09:24.929Z,9.23
2018-08-23T20:14:19.902Z,10.63
2018-08-23T20:19:14.533Z,8.20
2018-08-23T20:24:09.224Z,8.30
2018-08-23T20:29:03.998Z,9.47
2018-08-23T20:33:58.640Z,11.30
2018-08-23T20:38:53.356Z,8.47
2018-08-23T20:43:48.101Z,9.20
2018-08-23T20:48:42.846Z,7.87
2018-08-23T20:53:37.513Z,7.70
2018-08-23T20:58:32.125Z,7.10
2018-08-23T21:03:26.822Z,8.50
2018-08-23T21:08:21.672Z,10.30
2018-08-23T21:13:16.381Z,8.23
2018-08-23T21:18:12.280Z,10.00
2018-08-23T21:23:07.138Z,9.30
2018-08-23T21:28:01.826Z,9.37
2018-08-23T21:32:56.499Z,8.70
2018-08-23T21:37:51.263Z,12.70
2018-08-23T21:42:46.026Z,11.17
2018-08-23T21:47:40.753Z,13.00
2018-08-23T21:52:35.494Z,11.70
2018-08-23T21:57:30.417Z,12.80
2018-08-23T22:02:25.181Z,10.00
2018-08-23T22:07:20.065Z,10.80
2018-08-23T22:12:14.898Z,14.33
2018-08-23T22:17:09.587Z,11.97
2018-08-23T22:22:04.189Z,11.27
2018-08-23T22:26:58.781Z,11.10
2018-08-23T22:31:54.381Z,9.37
2018-08-23T22:36:49.090Z,10.17
2018-08-23T22:41:43.766Z,10.83
2018-08-23T22:46:38.545Z,10.30
2018-08-23T22:51:33.273Z,8.90
2018-08-23T22:56:27.914Z,13.03
2018-08-23T23:01:22.546Z,8.13
2018-08-23T23:06:17.092Z,6.73
2018-08-23T23:11:11.641Z,5.90
2018-08-23T23:16:06.270Z,7.33
2018-08-23T23:21:00.832Z,5.80
2018-08-23T23:25:55.462Z,6.20
2018-08-23T23:30:50.012Z,5.90
2018-08-23T23:35:44.620Z,6.63
2018-08-23T23:40:39.145Z,5.97
2018-08-23T23:45:33.705Z,5.80
2018-08-23T23:50:28.204Z,5.63
2018-08-23T23:55:22.809Z,4.73
